Claes Maersk — OZDT2 — position and weather

sailwx.info

Track history (hours):
 
Tides and Currents Weather Stations Pressure Air Temp Water Temp Dewpoint Dewpoint Depression Visibility Wind Speed Wind Dir Waves Ship Positions

Claes Maersk

Last reported at 2015-Jul-03 14:20 UTC. Time now 2015-Jul-29 11:31 UTC.
Position S 20°04' E 057°07'.
Warning: this ship's position is 25 days out of date.

Length 190 m; draft 9.3 m.

Type: Cargo ship. MMSI: 219572000.

Date/timePositionNaut miles runAvg speedWind from/ knotsBaromVisibWave heightAir tempDewpointWater temp
2015-Jul-03 14:20S 20°04' E 057°07'810.7
2015-Jul-03 13:33S 20°06' E 057°15'4 3.6
2015-Jul-03 12:33S 20°07' E 057°19'8 7.6
2015-Jul-03 11:34S 20°08' E 057°27'3 2.5
2015-Jul-03 10:32S 20°08' E 057°30'0 0.0
2015-Jul-03 09:32S 20°08' E 057°30'0 0.0
2015-Jul-03 08:32S 20°08' E 057°30'0 0.0
2015-Jul-03 07:32S 20°08' E 057°30'0 0.0
2015-Jul-03 06:32S 20°08' E 057°30'0 0.0
2015-Jul-03 05:29S 20°08' E 057°30'0 0.0
2015-Jul-03 04:32S 20°08' E 057°30'0 0.0
2015-Jul-03 03:32S 20°08' E 057°30'0 0.0
2015-Jul-03 02:32S 20°08' E 057°30'0 0.0
2015-Jul-03 01:32S 20°08' E 057°30'0 0.0
2015-Jul-03 00:32S 20°08' E 057°30'0 0.0
2015-Jul-02 23:32S 20°08' E 057°30'0 0.0
2015-Jul-02 22:32S 20°08' E 057°30'0 0.0
2015-Jul-02 21:32S 20°08' E 057°30'0 0.0
2015-Jul-02 20:32S 20°08' E 057°30'0 0.0
2015-Jul-02 19:32S 20°08' E 057°30'0 0.0
2015-Jul-02 18:32S 20°08' E 057°30'0 0.0
2015-Jul-02 17:32S 20°08' E 057°30'0 0.0
2015-Jul-02 16:32S 20°08' E 057°30'0 0.0
2015-Jul-02 15:32S 20°08' E 057°30'0 0.0
2015-Jul-02 14:29S 20°08' E 057°30'0 0.0
2015-Jul-02 13:33S 20°08' E 057°30'0 0.0
2015-Jul-02 12:28S 20°08' E 057°30'0 0.0
2015-Jul-02 11:31S 20°08' E 057°30'0 0.0
2015-Jul-02 10:31S 20°08' E 057°30'0 0.0
2015-Jul-02 09:32S 20°08' E 057°30'0 0.0
2015-Jul-02 08:32S 20°08' E 057°30'0 0.0
2015-Jul-02 07:32S 20°08' E 057°30'0 0.0
2015-Jul-02 06:32S 20°08' E 057°30'0 0.0
2015-Jul-02 05:32S 20°08' E 057°30'0 0.0
2015-Jul-02 04:32S 20°08' E 057°30'0 0.0
2015-Jul-02 03:32S 20°08' E 057°30'0 0.0
2015-Jul-02 02:32S 20°08' E 057°30'0 0.0
2015-Jul-02 01:32S 20°08' E 057°30'0 0.0
2015-Jul-02 00:33S 20°08' E 057°30'0 0.0
2015-Jul-01 23:33S 20°08' E 057°30'0 0.0
2015-Jul-01 22:33S 20°08' E 057°30'0 0.0
2015-Jul-01 21:33S 20°08' E 057°30'0 0.0
2015-Jul-01 20:33S 20°08' E 057°30'1 1.3
2015-Jul-01 19:33S 20°08' E 057°28'3 2.7
2015-Jul-01 18:33S 20°07' E 057°26'2 1.8
2015-Jul-01 17:33S 20°06' E 057°24'1 0.7
2015-Jul-01 16:33S 20°06' E 057°25'2 1.6
2015-Jul-01 15:33S 20°05' E 057°24'4 3.9
2015-Jul-01 14:33S 20°02' E 057°20'1 0.7
2015-Jul-01 13:28S 20°02' E 057°20'1 1.1
2015-Jul-01 12:33S 20°03' E 057°21'4 4.4
2015-Jul-01 11:33S 20°07' E 057°21'  
Track history (hours):
 
Tides and Currents Weather Stations Pressure Air Temp Water Temp Dewpoint Dewpoint Depression Visibility Wind Speed Wind Dir Waves Ship Positions

Claes Maersk

Last reported at 2015-Jul-03 14:20 UTC. Time now 2015-Jul-29 11:31 UTC.
Position S 20°04' E 057°07'.
Warning: this ship's position is 25 days out of date.

Length 190 m; draft 9.3 m.

Type: Cargo ship. MMSI: 219572000.

Date/timePositionNaut miles runAvg speedWind from/ knotsBaromVisibWave heightAir tempDewpointWater temp
2015-Jul-03 14:20S 20°04' E 057°07'810.7
2015-Jul-03 13:33S 20°06' E 057°15'4 3.6
2015-Jul-03 12:33S 20°07' E 057°19'8 7.6
2015-Jul-03 11:34S 20°08' E 057°27'3 2.5
2015-Jul-03 10:32S 20°08' E 057°30'0 0.0
2015-Jul-03 09:32S 20°08' E 057°30'0 0.0
2015-Jul-03 08:32S 20°08' E 057°30'0 0.0
2015-Jul-03 07:32S 20°08' E 057°30'0 0.0
2015-Jul-03 06:32S 20°08' E 057°30'0 0.0
2015-Jul-03 05:29S 20°08' E 057°30'0 0.0
2015-Jul-03 04:32S 20°08' E 057°30'0 0.0
2015-Jul-03 03:32S 20°08' E 057°30'0 0.0
2015-Jul-03 02:32S 20°08' E 057°30'0 0.0
2015-Jul-03 01:32S 20°08' E 057°30'0 0.0
2015-Jul-03 00:32S 20°08' E 057°30'0 0.0
2015-Jul-02 23:32S 20°08' E 057°30'0 0.0
2015-Jul-02 22:32S 20°08' E 057°30'0 0.0
2015-Jul-02 21:32S 20°08' E 057°30'0 0.0
2015-Jul-02 20:32S 20°08' E 057°30'0 0.0
2015-Jul-02 19:32S 20°08' E 057°30'0 0.0
2015-Jul-02 18:32S 20°08' E 057°30'0 0.0
2015-Jul-02 17:32S 20°08' E 057°30'0 0.0
2015-Jul-02 16:32S 20°08' E 057°30'0 0.0
2015-Jul-02 15:32S 20°08' E 057°30'0 0.0
2015-Jul-02 14:29S 20°08' E 057°30'0 0.0
2015-Jul-02 13:33S 20°08' E 057°30'0 0.0
2015-Jul-02 12:28S 20°08' E 057°30'0 0.0
2015-Jul-02 11:31S 20°08' E 057°30'0 0.0
2015-Jul-02 10:31S 20°08' E 057°30'0 0.0
2015-Jul-02 09:32S 20°08' E 057°30'0 0.0
2015-Jul-02 08:32S 20°08' E 057°30'0 0.0
2015-Jul-02 07:32S 20°08' E 057°30'0 0.0
2015-Jul-02 06:32S 20°08' E 057°30'0 0.0
2015-Jul-02 05:32S 20°08' E 057°30'0 0.0
2015-Jul-02 04:32S 20°08' E 057°30'0 0.0
2015-Jul-02 03:32S 20°08' E 057°30'0 0.0
2015-Jul-02 02:32S 20°08' E 057°30'0 0.0
2015-Jul-02 01:32S 20°08' E 057°30'0 0.0
2015-Jul-02 00:33S 20°08' E 057°30'0 0.0
2015-Jul-01 23:33S 20°08' E 057°30'0 0.0
2015-Jul-01 22:33S 20°08' E 057°30'0 0.0
2015-Jul-01 21:33S 20°08' E 057°30'0 0.0
2015-Jul-01 20:33S 20°08' E 057°30'1 1.3
2015-Jul-01 19:33S 20°08' E 057°28'3 2.7
2015-Jul-01 18:33S 20°07' E 057°26'2 1.8
2015-Jul-01 17:33S 20°06' E 057°24'1 0.7
2015-Jul-01 16:33S 20°06' E 057°25'2 1.6
2015-Jul-01 15:33S 20°05' E 057°24'4 3.9
2015-Jul-01 14:33S 20°02' E 057°20'1 0.7
2015-Jul-01 13:28S 20°02' E 057°20'1 1.1
2015-Jul-01 12:33S 20°03' E 057°21'4 4.4
2015-Jul-01 11:33S 20°07' E 057°21'  

Dump ship's entire track history